Terminal Aerodrome Forecast
Issued by NWS

Home | Current Version | Previous Version | Graphics & Text | Print | Product List | Glossary On
Versions: 1 2 3 4 5 6 7 8 9 10 11 12 13 14 15 16 17 18
000
FTUS43 KMPX 210600 AAA
TAFRWF
TAF AMD
KRWF 210644Z 2107/2206 15010KT P6SM -SHRA VCTS SCT012 BKN035CB
      TEMPO 2107/2109 2SM TSRA BKN012CB
     FM211000 14006KT 4SM BR SCT008 BKN012
     FM211600 17008KT 6SM BR SCT012 BKN025
     FM211800 20008KT P6SM BKN050
     FM220000 VRB03KT P6SM BKN050=

USA.gov is the U.S. government's official web portal to all federal, state and local government web resources and services.